Time;durP1;ratioP1;P1;durP2;ratioP2;P2;SDS_P1;SDS_P2;PMS_P1;PMS_P2;Temp;Humidity;BMP_temperature;BMP_pressure;BME280_temperature;BME280_humidity;BME280_pressure;Samples;Min_cycle;Max_cycle;Signal;HPM_P1;HPM_P2
2023/12/07 00:00:32;;;;;;;1.85;1.27;;;;;;;25.79;nan;99471.03;7392421;19;20475;-55
2023/12/07 00:02:59;;;;;;;0.32;0.32;;;;;;;22.05;nan;99464.91;7393031;19;20010;-55
2023/12/07 00:05:25;;;;;;;1.00;0.98;;;;;;;21.13;nan;99468.72;7391597;19;20006;-56
2023/12/07 00:07:51;;;;;;;4.13;1.10;;;;;;;22.45;nan;99463.06;7391881;19;20015;-55
2023/12/07 00:10:17;;;;;;;1.48;1.38;;;;;;;22.15;nan;99446.03;7391172;19;20050;-55
2023/12/07 00:12:43;;;;;;;0.20;0.20;;;;;;;24.71;nan;99430.00;7390790;19;20027;-56
2023/12/07 00:15:10;;;;;;;0.60;0.60;;;;;;;28.93;nan;99418.06;7394364;19;20035;-56
2023/12/07 00:17:36;;;;;;;1.45;0.55;;;;;;;29.83;nan;99414.72;7392389;19;20034;-56
2023/12/07 00:20:04;;;;;;;0.75;0.60;;;;;;;30.52;nan;99396.00;7393587;19;20035;-56
2023/12/07 00:22:30;;;;;;;8.68;1.50;;;;;;;30.80;nan;99394.09;7391168;19;20014;-56
2023/12/07 00:24:56;;;;;;;0.88;0.52;;;;;;;27.76;nan;99391.91;7391350;19;20007;-55
2023/12/07 00:27:22;;;;;;;1.15;0.95;;;;;;;23.73;nan;99398.72;7390458;19;20356;-56
2023/12/07 00:29:48;;;;;;;6.55;1.65;;;;;;;26.25;nan;99395.56;7390163;19;20144;-56
2023/12/07 00:32:14;;;;;;;1.05;0.82;;;;;;;26.30;nan;99397.41;7390086;19;20015;-56
2023/12/07 00:34:40;;;;;;;0.73;0.50;;;;;;;26.95;nan;99413.78;7391963;19;20014;-56
2023/12/07 00:37:07;;;;;;;0.47;0.47;;;;;;;26.54;nan;99412.78;7392094;19;20321;-56
2023/12/07 00:39:33;;;;;;;2.95;1.90;;;;;;;27.36;nan;99409.00;7395825;19;20015;-56
2023/12/07 00:41:59;;;;;;;3.95;0.80;;;;;;;25.48;nan;99417.25;7392473;19;20006;-55
2023/12/07 00:44:25;;;;;;;1.17;1.02;;;;;;;25.13;nan;99404.34;7392430;19;20010;-56
2023/12/07 00:46:51;;;;;;;0.43;0.43;;;;;;;28.75;nan;99402.47;7390948;19;20380;-56
2023/12/07 00:49:17;;;;;;;0.60;0.60;;;;;;;31.35;nan;99399.56;7391280;19;20343;-56
2023/12/07 00:51:43;;;;;;;0.50;0.50;;;;;;;31.99;nan;99390.22;7395123;19;20014;-56
2023/12/07 00:54:09;;;;;;;1.15;1.05;;;;;;;32.12;nan;99398.13;7394048;19;20015;-56
2023/12/07 00:56:37;;;;;;;5.82;1.60;;;;;;;31.06;nan;99393.53;7390536;19;20477;-56
2023/12/07 00:59:03;;;;;;;1.30;1.20;;;;;;;21.18;nan;99399.03;7389740;19;20479;-56
2023/12/07 01:01:29;;;;;;;2.45;1.15;;;;;;;20.22;nan;99404.28;7393509;19;20019;-56
2023/12/07 01:03:55;;;;;;;0.57;0.57;;;;;;;18.89;nan;99416.50;7391259;19;20031;-56
2023/12/07 01:06:21;;;;;;;0.90;0.90;;;;;;;18.27;nan;99403.31;7389449;19;20026;-56
2023/12/07 01:08:47;;;;;;;2.42;0.73;;;;;;;19.31;nan;99397.66;7389612;19;20006;-55
2023/12/07 01:11:13;;;;;;;0.40;0.40;;;;;;;19.06;nan;99387.94;7390059;19;20037;-56
2023/12/07 01:13:39;;;;;;;1.02;0.65;;;;;;;20.59;nan;99389.66;7392755;19;20015;-56
2023/12/07 01:16:06;;;;;;;0.30;0.30;;;;;;;22.90;nan;99382.78;7398438;19;20011;-56
2023/12/07 01:18:32;;;;;;;1.02;0.93;;;;;;;21.71;nan;99387.88;7398240;19;20021;-55
2023/12/07 01:20:58;;;;;;;2.50;0.98;;;;;;;23.91;nan;99377.53;7401504;19;20026;-55
2023/12/07 01:23:24;;;;;;;0.52;0.52;;;;;;;21.59;nan;99378.97;7398012;19;20014;-56
2023/12/07 01:25:50;;;;;;;1.30;0.43;;;;;;;19.38;nan;99377.22;7397226;19;20417;-55
2023/12/07 01:28:17;;;;;;;0.38;0.38;;;;;;;20.41;nan;99362.38;7397890;19;20014;-55
2023/12/07 01:30:43;;;;;;;0.30;0.30;;;;;;;20.51;nan;99369.03;7398238;19;20466;-55
2023/12/07 01:33:09;;;;;;;1.75;0.80;;;;;;;20.94;nan;99369.09;7399650;19;20464;-56
2023/12/07 01:35:35;;;;;;;0.13;0.13;;;;;;;20.96;nan;99346.63;7396956;19;20028;-55
2023/12/07 01:38:01;;;;;;;0.90;0.90;;;;;;;20.96;nan;99346.63;7398059;19;20015;-56
2023/12/07 01:40:27;;;;;;;0.73;0.60;;;;;;;20.86;nan;99337.16;7397887;19;20010;-55
2023/12/07 01:42:53;;;;;;;0.90;0.63;;;;;;;20.90;nan;99343.22;7397965;19;20007;-56
2023/12/07 01:45:20;;;;;;;0.30;0.30;;;;;;;20.73;nan;99337.28;7401566;19;20018;-56
2023/12/07 01:47:49;;;;;;;0.88;0.73;;;;;;;20.86;nan;99331.50;7395730;19;20053;-56
2023/12/07 01:50:15;;;;;;;3.13;0.65;;;;;;;21.14;nan;99325.03;7397644;19;20458;-57
2023/12/07 01:52:47;;;;;;;2.38;0.47;;;;;;;21.55;nan;99321.19;7397359;19;20455;-57
2023/12/07 01:55:14;;;;;;;0.73;0.73;;;;;;;22.00;nan;99309.88;7396526;19;20366;-57
2023/12/07 01:57:43;;;;;;;2.47;1.25;;;;;;;20.07;nan;99325.72;7396729;19;20474;-63
2023/12/07 02:00:10;;;;;;;0.40;0.40;;;;;;;18.73;nan;99315.28;7398264;19;20018;-57
2023/12/07 02:02:36;;;;;;;2.88;0.57;;;;;;;20.97;nan;99314.19;7397943;19;20373;-57
2023/12/07 02:05:03;;;;;;;3.70;1.70;;;;;;;18.91;nan;99311.53;7397435;19;20087;-57
2023/12/07 02:07:30;;;;;;;0.57;0.57;;;;;;;19.01;nan;99314.69;7392419;19;20025;-57
2023/12/07 02:09:58;;;;;;;1.98;0.63;;;;;;;18.31;nan;99308.66;7396558;19;20006;-57
2023/12/07 02:12:24;;;;;;;0.65;0.65;;;;;;;17.83;nan;99312.63;7397010;19;20384;-57
2023/12/07 02:14:53;;;;;;;20.88;1.42;;;;;;;20.17;nan;99304.13;7399341;19;20018;-56
2023/12/07 02:17:40;;;;;;;0.68;0.68;;;;;;;22.63;nan;99290.88;7398660;19;20015;-57
2023/12/07 02:20:26;;;;;;;0.88;0.88;;;;;;;20.60;nan;99300.63;7397499;19;20014;-57
2023/12/07 02:22:54;;;;;;;3.03;0.93;;;;;;;20.07;nan;99293.88;7397198;19;20078;-57
2023/12/07 02:25:29;;;;;;;1.05;0.95;;;;;;;29.25;nan;99273.19;7397276;19;20515;-57
2023/12/07 02:27:55;;;;;;;1.73;1.13;;;;;;;31.17;nan;99260.41;7390231;19;20016;-57
2023/12/07 02:30:21;;;;;;;1.50;0.63;;;;;;;31.53;nan;99263.81;7400255;19;20015;-57
2023/12/07 02:32:47;;;;;;;0.30;0.28;;;;;;;24.15;nan;99263.00;7395511;19;20014;-57
2023/12/07 02:35:14;;;;;;;0.75;0.75;;;;;;;21.63;nan;99271.69;7396844;19;20018;-56
2023/12/07 02:37:46;;;;;;;2.65;0.90;;;;;;;21.08;nan;99259.31;7396275;19;20038;-56
2023/12/07 02:40:17;;;;;;;1.10;0.60;;;;;;;20.25;nan;99264.59;7396013;19;20015;-57
2023/12/07 02:42:44;;;;;;;0.45;0.45;;;;;;;19.73;nan;99262.88;7399847;19;20015;-58
2023/12/07 02:45:12;;;;;;;0.15;0.15;;;;;;;18.98;nan;99257.25;7398783;19;20462;-57
2023/12/07 02:47:38;;;;;;;0.28;0.28;;;;;;;18.00;nan;99262.38;7393802;19;20019;-57
2023/12/07 02:50:07;;;;;;;7.78;1.25;;;;;;;18.59;nan;99265.81;7396775;19;20015;-57
2023/12/07 02:52:34;;;;;;;1.98;1.77;;;;;;;18.17;nan;99259.22;7394354;19;20042;-56
2023/12/07 02:55:00;;;;;;;0.30;0.28;;;;;;;20.64;nan;99246.50;7399641;19;20014;-56
2023/12/07 02:57:26;;;;;;;0.25;0.22;;;;;;;19.12;nan;99250.28;7394492;19;20013;-56
2023/12/07 02:59:52;;;;;;;1.17;1.17;;;;;;;19.31;nan;99241.59;7394320;19;20021;-56
2023/12/07 03:02:19;;;;;;;0.75;0.70;;;;;;;19.96;nan;99231.97;7394517;19;20035;-56
2023/12/07 03:04:45;;;;;;;0.45;0.40;;;;;;;20.25;nan;99233.47;7395344;19;20014;-57
2023/12/07 03:07:11;;;;;;;0.63;0.57;;;;;;;20.49;nan;99215.34;7398471;19;20354;-56
2023/12/07 03:09:37;;;;;;;0.15;0.15;;;;;;;20.36;nan;99211.31;7395003;19;20038;-56
2023/12/07 03:12:04;;;;;;;0.90;0.90;;;;;;;19.85;nan;99215.31;7393458;19;20014;-56
2023/12/07 03:14:30;;;;;;;2.80;0.57;;;;;;;19.44;nan;99197.13;7395746;19;20010;-57
2023/12/07 03:16:56;;;;;;;1.27;0.88;;;;;;;18.91;nan;99196.63;7397289;19;20017;-56
2023/12/07 03:19:22;;;;;;;1.02;0.93;;;;;;;19.82;nan;99193.81;7395278;19;20025;-56
2023/12/07 03:21:48;;;;;;;0.13;0.13;;;;;;;20.58;nan;99192.91;7398170;19;20014;-56
2023/12/07 03:24:15;;;;;;;6.03;0.88;;;;;;;19.58;nan;99190.09;7394610;19;20025;-56
2023/12/07 03:26:41;;;;;;;0.90;0.63;;;;;;;18.38;nan;99189.59;7392431;19;20011;-56
2023/12/07 03:29:07;;;;;;;1.85;1.27;;;;;;;20.58;nan;99187.25;7398152;19;20010;-57
2023/12/07 03:31:33;;;;;;;0.50;0.50;;;;;;;20.03;nan;99186.78;7393392;19;20048;-57
2023/12/07 03:34:01;;;;;;;3.53;1.30;;;;;;;20.95;nan;99172.44;7393501;19;20337;-57
2023/12/07 03:36:27;;;;;;;0.63;0.32;;;;;;;18.79;nan;99183.31;7394265;19;20419;-57
2023/12/07 03:38:53;;;;;;;0.43;0.43;;;;;;;20.90;nan;99181.09;7396274;19;20014;-57
2023/12/07 03:41:19;;;;;;;0.65;0.65;;;;;;;20.47;nan;99167.78;7393848;19;20333;-57
2023/12/07 03:43:45;;;;;;;9.32;0.73;;;;;;;20.43;nan;99164.56;7395161;19;20380;-57
2023/12/07 03:46:11;;;;;;;0.60;0.60;;;;;;;20.85;nan;99160.16;7393493;19;20024;-58
2023/12/07 03:48:38;;;;;;;4.57;0.93;;;;;;;20.75;nan;99150.69;7393728;19;20022;-57
2023/12/07 03:51:04;;;;;;;0.35;0.35;;;;;;;20.07;nan;99152.53;7396228;19;20010;-57
2023/12/07 03:53:30;;;;;;;1.77;0.60;;;;;;;19.54;nan;99149.38;7392227;19;20066;-57
2023/12/07 03:55:57;;;;;;;1.27;0.70;;;;;;;19.14;nan;99140.41;7393734;19;20044;-57
2023/12/07 03:58:23;;;;;;;0.98;0.93;;;;;;;21.55;nan;99123.56;7391969;19;20454;-57
2023/12/07 04:00:49;;;;;;;0.43;0.43;;;;;;;30.19;nan;99113.84;7392981;19;20017;-57
2023/12/07 04:03:15;;;;;;;0.45;0.45;;;;;;;33.54;nan;99095.84;7393735;19;20006;-57
2023/12/07 04:05:41;;;;;;;1.80;1.40;;;;;;;34.51;nan;99104.97;7392551;19;20009;-57
2023/12/07 04:08:07;;;;;;;0.90;0.85;;;;;;;34.70;nan;99090.56;7393467;19;20022;-57
2023/12/07 04:10:33;;;;;;;0.15;0.15;;;;;;;34.88;nan;99085.50;7392016;19;20475;-57
2023/12/07 04:13:00;;;;;;;0.68;0.68;;;;;;;35.31;nan;99087.81;7394173;19;20467;-57
2023/12/07 04:15:26;;;;;;;0.30;0.20;;;;;;;35.41;nan;99076.59;7395623;19;20010;-57
2023/12/07 04:17:52;;;;;;;5.03;1.13;;;;;;;35.43;nan;99073.78;7392345;19;20507;-57
2023/12/07 04:20:18;;;;;;;0.35;0.35;;;;;;;35.22;nan;99074.47;7394419;19;20022;-57
2023/12/07 04:22:45;;;;;;;0.40;0.40;;;;;;;35.24;nan;99062.22;7394361;19;20095;-57
2023/12/07 04:25:11;;;;;;;0.65;0.45;;;;;;;35.03;nan;99064.38;7393883;19;20013;-57
2023/12/07 04:27:37;;;;;;;0.20;0.20;;;;;;;35.15;nan;99048.88;7391606;19;20026;-56
2023/12/07 04:30:04;;;;;;;3.50;0.63;;;;;;;35.11;nan;99060.31;7393168;19;20554;-57
2023/12/07 04:32:30;;;;;;;0.70;0.63;;;;;;;35.15;nan;99054.66;7390869;19;20022;-57
2023/12/07 04:34:56;;;;;;;0.65;0.65;;;;;;;35.03;nan;99052.03;7391851;19;20574;-57
2023/12/07 04:37:23;;;;;;;0.55;0.52;;;;;;;34.76;nan;99049.56;7392796;19;20015;-57
2023/12/07 04:39:49;;;;;;;1.85;0.65;;;;;;;34.69;nan;99042.06;7391515;19;20038;-57
2023/12/07 04:42:15;;;;;;;0.47;0.47;;;;;;;34.52;nan;99031.28;7390926;19;20044;-56
2023/12/07 04:44:41;;;;;;;0.32;0.32;;;;;;;34.85;nan;99028.19;7393265;19;20014;-56
2023/12/07 04:47:07;;;;;;;1.00;0.73;;;;;;;35.16;nan;99033.72;7390456;19;20014;-56
2023/12/07 04:49:33;;;;;;;1.30;1.05;;;;;;;35.34;nan;99031.47;7391701;19;20014;-57
2023/12/07 04:52:00;;;;;;;0.50;0.50;;;;;;;35.37;nan;99012.75;7394824;19;20019;-57
2023/12/07 04:54:27;;;;;;;0.20;0.20;;;;;;;35.14;nan;99022.06;7397862;19;20010;-56
2023/12/07 04:56:54;;;;;;;2.55;1.25;;;;;;;34.96;nan;99010.53;7399934;19;20014;-56
2023/12/07 04:59:20;;;;;;;0.30;0.22;;;;;;;34.91;nan;99003.09;7399790;19;20078;-56
2023/12/07 05:01:47;;;;;;;0.10;0.10;;;;;;;34.87;nan;99002.97;7399686;19;20014;-56
2023/12/07 05:04:13;;;;;;;0.32;0.28;;;;;;;34.71;nan;98995.84;7396623;19;20341;-56
2023/12/07 05:06:39;;;;;;;0.98;0.98;;;;;;;34.17;nan;99012.53;7397123;19;20018;-56
2023/12/07 05:09:09;;;;;;;0.38;0.38;;;;;;;34.26;nan;98994.09;7395402;19;20551;-57
2023/12/07 05:11:36;;;;;;;0.40;0.40;;;;;;;34.34;nan;99017.56;7399692;19;20031;-57
2023/12/07 05:14:03;;;;;;;0.98;0.43;;;;;;;34.49;nan;99003.63;7399032;19;20014;-56
2023/12/07 05:16:29;;;;;;;0.52;0.52;;;;;;;30.96;nan;99013.28;7397945;19;20010;-57
2023/12/07 05:18:55;;;;;;;2.13;0.20;;;;;;;25.11;nan;99024.41;7398167;19;20016;-56
2023/12/07 05:21:21;;;;;;;0.20;0.20;;;;;;;24.98;nan;99011.31;7400697;19;20011;-56
2023/12/07 05:23:48;;;;;;;0.70;0.68;;;;;;;32.29;nan;99020.06;7399104;19;20033;-56
2023/12/07 05:26:14;;;;;;;0.63;0.45;;;;;;;32.97;nan;99004.44;7398443;19;20011;-56
2023/12/07 05:28:40;;;;;;;0.65;0.50;;;;;;;33.10;nan;99007.25;7397889;19;20014;-56
2023/12/07 05:31:06;;;;;;;2.25;1.00;;;;;;;33.16;nan;99003.88;7397479;19;20353;-56
2023/12/07 05:33:33;;;;;;;0.43;0.30;;;;;;;33.32;nan;98987.25;7394838;19;20011;-56
2023/12/07 05:38:59;;;;;;;0.30;0.30;;;;;;;33.33;nan;98977.22;7399216;19;20466;-53
2023/12/07 05:41:25;;;;;;;0.35;0.35;;;;;;;33.37;nan;98977.38;7396343;19;20025;-53
2023/12/07 05:43:52;;;;;;;1.40;0.63;;;;;;;33.43;nan;98992.06;7393394;19;20014;-53
2023/12/07 05:46:19;;;;;;;1.23;0.70;;;;;;;33.63;nan;98978.50;7394851;19;20014;-53
2023/12/07 05:48:46;;;;;;;0.22;0.22;;;;;;;33.52;nan;98982.38;7398085;19;20027;-53
2023/12/07 05:51:14;;;;;;;0.20;0.20;;;;;;;33.30;nan;98978.50;7397538;19;20031;-53
2023/12/07 05:53:41;;;;;;;0.55;0.40;;;;;;;33.12;nan;98974.81;7397808;19;20038;-53
2023/12/07 05:56:07;;;;;;;0.20;0.20;;;;;;;29.40;nan;98971.44;7397254;19;20048;-53
2023/12/07 05:58:33;;;;;;;0.57;0.43;;;;;;;27.54;nan;98981.22;7395361;19;20047;-52
2023/12/07 06:01:01;;;;;;;0.43;0.43;;;;;;;28.13;nan;98969.34;7396552;19;20011;-53
2023/12/07 06:03:27;;;;;;;1.67;0.70;;;;;;;28.19;nan;98974.72;7394666;19;20123;-52
2023/12/07 06:05:54;;;;;;;1.75;1.65;;;;;;;28.04;nan;98964.50;7396857;19;20015;-53
2023/12/07 06:08:20;;;;;;;0.73;0.47;;;;;;;27.92;nan;98957.97;7396536;19;20031;-53
2023/12/07 06:10:46;;;;;;;4.40;1.13;;;;;;;27.90;nan;98952.09;7397372;19;20015;-53
2023/12/07 06:13:13;;;;;;;0.30;0.15;;;;;;;28.03;nan;98945.06;7401060;19;20416;-53
2023/12/07 06:15:40;;;;;;;0.68;0.68;;;;;;;28.00;nan;98929.91;7399976;19;20014;-53
2023/12/07 06:18:06;;;;;;;0.90;0.63;;;;;;;28.04;nan;98930.16;7396465;19;20015;-54
2023/12/07 06:20:33;;;;;;;2.25;0.60;;;;;;;28.07;nan;98928.16;7397427;19;20014;-53
2023/12/07 06:22:59;;;;;;;0.65;0.40;;;;;;;28.40;nan;98918.09;7400431;19;20077;-54
2023/12/07 06:25:25;;;;;;;1.48;1.05;;;;;;;28.56;nan;98924.06;7396450;19;20069;-53
2023/12/07 06:27:51;;;;;;;0.20;0.20;;;;;;;28.51;nan;98917.34;7393685;19;20014;-56
2023/12/07 06:30:18;;;;;;;0.30;0.30;;;;;;;28.46;nan;98918.44;7395426;19;20015;-53
2023/12/07 06:32:44;;;;;;;0.10;0.10;;;;;;;27.34;nan;98928.38;7398792;19;20011;-53
2023/12/07 06:35:13;;;;;;;4.93;1.00;;;;;;;27.64;nan;98921.78;7395624;19;20466;-54
2023/12/07 06:37:41;;;;;;;0.50;0.50;;;;;;;27.70;nan;98916.44;7395751;19;20011;-54
2023/12/07 06:40:09;;;;;;;0.52;0.52;;;;;;;28.04;nan;98907.25;7394113;19;20347;-53
2023/12/07 06:42:36;;;;;;;0.65;0.65;;;;;;;28.56;nan;98903.25;7397948;19;20477;-55
2023/12/07 06:45:02;;;;;;;0.20;0.20;;;;;;;26.78;nan;98911.03;7397700;19;20360;-61
2023/12/07 06:47:28;;;;;;;0.20;0.20;;;;;;;26.20;nan;98908.47;7392278;19;20017;-53
2023/12/07 06:49:58;;;;;;;0.63;0.50;;;;;;;26.21;nan;98920.63;7394859;19;20055;-53
2023/12/07 06:52:24;;;;;;;1.10;0.95;;;;;;;26.59;nan;98909.03;7394916;19;20023;-53
2023/12/07 06:54:51;;;;;;;2.20;1.10;;;;;;;26.79;nan;98898.25;7398693;19;20784;-53
2023/12/07 06:57:17;;;;;;;0.30;0.30;;;;;;;24.24;nan;98908.72;7395004;19;20010;-53
2023/12/07 06:59:43;;;;;;;0.50;0.32;;;;;;;24.15;nan;98898.78;7396547;19;20463;-53
2023/12/07 07:02:09;;;;;;;0.73;0.73;;;;;;;27.79;nan;98887.00;7395446;19;20044;-55
2023/12/07 07:04:35;;;;;;;0.40;0.40;;;;;;;27.82;nan;98885.78;7394025;19;20459;-54
2023/12/07 07:07:02;;;;;;;0.30;0.30;;;;;;;29.04;nan;98877.53;7395950;19;20053;-53
2023/12/07 07:09:28;;;;;;;0.30;0.30;;;;;;;25.86;nan;98879.59;7393668;19;20017;-53
2023/12/07 07:11:54;;;;;;;6.03;1.00;;;;;;;23.98;nan;98885.38;7394582;19;20486;-53
2023/12/07 07:14:20;;;;;;;0.73;0.73;;;;;;;23.75;nan;98890.66;7394215;19;20014;-53
2023/12/07 07:16:46;;;;;;;0.38;0.38;;;;;;;22.92;nan;98885.22;7393820;19;20486;-57
2023/12/07 07:19:14;;;;;;;1.83;0.70;;;;;;;23.74;nan;98883.44;7397550;19;20007;-53
2023/12/07 07:21:40;;;;;;;1.48;0.75;;;;;;;24.27;nan;98882.69;7396383;19;20018;-54
2023/12/07 07:24:06;;;;;;;0.10;0.10;;;;;;;23.77;nan;98882.28;7394230;19;20019;-53
2023/12/07 07:26:32;;;;;;;0.10;0.10;;;;;;;23.62;nan;98879.66;7395032;19;20018;-53
2023/12/07 07:28:59;;;;;;;7.03;1.70;;;;;;;23.79;nan;98879.59;7397766;19;20021;-52
2023/12/07 07:31:25;;;;;;;2.05;0.45;;;;;;;25.53;nan;98868.69;7396832;19;20017;-53
2023/12/07 07:33:51;;;;;;;2.53;1.20;;;;;;;22.60;nan;98867.03;7396759;19;20328;-53
2023/12/07 07:36:17;;;;;;;0.75;0.25;;;;;;;25.26;nan;98856.72;7396783;19;20029;-53
2023/12/07 07:38:44;;;;;;;0.75;0.73;;;;;;;25.83;nan;98860.81;7397847;19;20011;-54
2023/12/07 07:41:11;;;;;;;0.40;0.40;;;;;;;26.05;nan;98862.38;7397997;19;20006;-53
2023/12/07 07:43:40;;;;;;;0.55;0.43;;;;;;;26.14;nan;98856.66;7397756;19;20027;-54
2023/12/07 07:46:08;;;;;;;0.65;0.65;;;;;;;25.93;nan;98855.81;7395032;19;21432;-53
2023/12/07 07:48:34;;;;;;;1.40;0.80;;;;;;;26.09;nan;98840.63;7395536;19;20011;-53
2023/12/07 07:51:00;;;;;;;0.85;0.57;;;;;;;23.47;nan;98853.53;7395983;19;20014;-53
2023/12/07 07:53:26;;;;;;;1.90;0.95;;;;;;;21.46;nan;98848.59;7395649;19;20006;-52
2023/12/07 07:55:53;;;;;;;1.27;0.50;;;;;;;22.93;nan;98847.00;7396684;19;20011;-53
2023/12/07 07:58:19;;;;;;;0.32;0.32;;;;;;;23.29;nan;98847.09;7394908;19;20018;-53
2023/12/07 08:00:46;;;;;;;0.57;0.32;;;;;;;22.75;nan;98842.63;7396017;19;20011;-57
2023/12/07 08:03:12;;;;;;;0.10;0.10;;;;;;;22.42;nan;98830.66;7395696;19;20369;-53
2023/12/07 08:05:39;;;;;;;0.20;0.20;;;;;;;24.14;nan;98837.56;7393954;19;20014;-54
2023/12/07 08:08:05;;;;;;;0.40;0.40;;;;;;;22.31;nan;98825.47;7392265;19;20643;-59
2023/12/07 08:10:31;;;;;;;0.57;0.57;;;;;;;22.27;nan;98831.56;7395572;19;20046;-53
2023/12/07 08:12:57;;;;;;;0.45;0.43;;;;;;;22.89;nan;98823.94;7395883;19;20018;-53
2023/12/07 08:15:23;;;;;;;0.10;0.10;;;;;;;23.98;nan;98828.47;7395467;19;20022;-53
2023/12/07 08:17:50;;;;;;;0.90;0.80;;;;;;;23.95;nan;98823.97;7396153;19;20006;-56
2023/12/07 08:20:16;;;;;;;0.10;0.10;;;;;;;24.44;nan;98817.09;7395715;19;20021;-53
2023/12/07 08:22:43;;;;;;;0.10;0.10;;;;;;;24.15;nan;98818.41;7394684;19;20078;-53
2023/12/07 08:25:10;;;;;;;1.42;0.40;;;;;;;24.22;nan;98820.34;7395717;19;20019;-54
2023/12/07 08:27:38;;;;;;;0.20;0.15;;;;;;;25.87;nan;98796.25;7398947;19;20019;-54
2023/12/07 08:30:05;;;;;;;0.10;0.10;;;;;;;26.94;nan;98784.28;7403649;19;20014;-54
2023/12/07 08:32:31;;;;;;;0.30;0.30;;;;;;;25.93;nan;98781.63;7401280;19;20054;-53
2023/12/07 08:34:58;;;;;;;0.43;0.43;;;;;;;26.32;nan;98774.38;7402766;19;20087;-54
2023/12/07 08:37:24;;;;;;;0.45;0.45;;;;;;;26.85;nan;98781.50;7402490;19;20014;-53
2023/12/07 08:39:50;;;;;;;18.20;0.75;;;;;;;27.29;nan;98777.94;7402003;19;20376;-53
2023/12/07 08:42:16;;;;;;;0.10;0.10;;;;;;;27.13;nan;98771.16;7402403;19;20006;-54
2023/12/07 08:44:43;;;;;;;0.10;0.10;;;;;;;27.19;nan;98769.44;7402151;19;20019;-53
2023/12/07 08:47:09;;;;;;;0.52;0.32;;;;;;;27.18;nan;98767.94;7400284;19;20044;-53
2023/12/07 08:49:35;;;;;;;0.35;0.35;;;;;;;27.36;nan;98760.56;7398903;19;20454;-53
2023/12/07 08:52:02;;;;;;;0.52;0.52;;;;;;;26.14;nan;98751.06;7400825;19;20431;-54
2023/12/07 08:54:28;;;;;;;0.10;0.10;;;;;;;24.48;nan;98759.72;7402362;19;20011;-53
2023/12/07 08:56:55;;;;;;;0.90;0.47;;;;;;;24.27;nan;98734.69;7401165;19;20011;-53
2023/12/07 08:59:21;;;;;;;0.40;0.30;;;;;;;24.16;nan;98752.34;7402423;19;20066;-53
2023/12/07 09:01:47;;;;;;;0.22;0.20;;;;;;;24.23;nan;98739.34;7401126;19;20010;-54
2023/12/07 09:04:14;;;;;;;0.60;0.43;;;;;;;24.49;nan;98732.75;7400404;19;20013;-53
2023/12/07 09:06:40;;;;;;;0.20;0.20;;;;;;;24.72;nan;98725.25;7398516;19;20014;-53
2023/12/07 09:09:06;;;;;;;0.98;0.73;;;;;;;24.86;nan;98721.97;7399747;19;20015;-53
2023/12/07 09:11:32;;;;;;;0.75;0.75;;;;;;;25.20;nan;98713.03;7400609;19;20011;-54
2023/12/07 09:13:58;;;;;;;0.15;0.15;;;;;;;25.02;nan;98720.28;7400759;19;20015;-54
2023/12/07 09:16:25;;;;;;;0.20;0.20;;;;;;;24.94;nan;98709.06;7398020;19;20022;-53
2023/12/07 09:18:52;;;;;;;0.47;0.47;;;;;;;24.95;nan;98707.69;7399567;19;20007;-59
2023/12/07 09:21:18;;;;;;;1.75;1.38;;;;;;;25.16;nan;98710.66;7401215;19;20083;-54
2023/12/07 09:23:44;;;;;;;0.10;0.10;;;;;;;23.04;nan;98705.19;7401303;19;20007;-53
2023/12/07 09:26:11;;;;;;;0.10;0.10;;;;;;;21.98;nan;98702.91;7399499;19;20010;-53
2023/12/07 09:28:39;;;;;;;1.17;0.30;;;;;;;22.69;nan;98705.91;7399566;19;20010;-53
2023/12/07 09:31:06;;;;;;;0.85;0.45;;;;;;;28.24;nan;98699.44;7402249;19;20014;-53
2023/12/07 09:33:32;;;;;;;0.57;0.40;;;;;;;30.12;nan;98681.16;7394507;19;20006;-53
2023/12/07 09:35:58;;;;;;;0.55;0.55;;;;;;;26.34;nan;98694.56;7397449;19;20022;-53
2023/12/07 09:38:24;;;;;;;0.35;0.35;;;;;;;32.01;nan;98690.28;7398362;19;20018;-54
2023/12/07 09:40:54;;;;;;;0.15;0.15;;;;;;;32.90;nan;98683.94;7398132;19;20010;-53
2023/12/07 09:43:20;;;;;;;0.28;0.28;;;;;;;33.64;nan;98682.50;7397184;19;20043;-53
2023/12/07 09:45:48;;;;;;;0.10;0.05;;;;;;;33.16;nan;98669.13;7401422;19;20358;-54
2023/12/07 09:48:16;;;;;;;0.25;0.20;;;;;;;33.51;nan;98671.91;7395314;19;20010;-53
2023/12/07 09:50:43;;;;;;;0.20;0.20;;;;;;;33.63;nan;98666.59;7398738;19;20347;-53
2023/12/07 09:53:09;;;;;;;0.30;0.30;;;;;;;33.80;nan;98677.31;7398504;19;20027;-53
2023/12/07 09:55:35;;;;;;;0.60;0.60;;;;;;;33.84;nan;98674.56;7399103;19;20011;-54
2023/12/07 09:58:08;;;;;;;3.05;1.42;;;;;;;34.02;nan;98677.41;7397941;19;20010;-53
2023/12/07 10:00:35;;;;;;;6.13;0.60;;;;;;;34.10;nan;98675.53;7397776;19;20028;-54
2023/12/07 10:03:01;;;;;;;0.98;0.68;;;;;;;34.20;nan;98655.66;7396276;19;20035;-54
2023/12/07 10:05:27;;;;;;;1.08;0.43;;;;;;;34.88;nan;98656.44;7396724;19;20052;-53
2023/12/07 10:07:53;;;;;;;0.95;0.95;;;;;;;34.77;nan;98651.75;7398123;19;20748;-53
2023/12/07 10:10:19;;;;;;;0.30;0.13;;;;;;;34.55;nan;98651.03;7397033;19;20011;-53
2023/12/07 10:12:58;;;;;;;0.10;0.10;;;;;;;34.66;nan;98641.28;7397308;19;20013;-54
2023/12/07 10:15:25;;;;;;;1.10;1.00;;;;;;;34.85;nan;98641.16;7396964;19;20094;-53
2023/12/07 10:17:51;;;;;;;0.35;0.35;;;;;;;35.11;nan;98637.66;7395323;19;20018;-53
2023/12/07 10:20:19;;;;;;;0.10;0.10;;;;;;;34.97;nan;98640.81;7398064;19;20010;-53
2023/12/07 10:22:46;;;;;;;0.47;0.30;;;;;;;34.95;nan;98647.28;7397268;19;20027;-53
2023/12/07 10:25:12;;;;;;;0.40;0.40;;;;;;;34.76;nan;98650.28;7395100;19;20411;-53
2023/12/07 10:27:41;;;;;;;0.45;0.45;;;;;;;34.87;nan;98643.41;7393727;19;20011;-57
2023/12/07 10:30:09;;;;;;;0.38;0.15;;;;;;;35.00;nan;98639.47;7396066;19;20049;-53
2023/12/07 10:32:38;;;;;;;2.28;0.82;;;;;;;35.12;nan;98625.38;7395625;19;20017;-53
2023/12/07 10:35:08;;;;;;;0.77;0.45;;;;;;;35.25;nan;98624.31;7396749;19;20010;-53
2023/12/07 10:37:34;;;;;;;0.10;0.10;;;;;;;35.01;nan;98630.13;7395883;19;20510;-53
2023/12/07 10:40:02;;;;;;;0.10;0.10;;;;;;;34.79;nan;98628.66;7395991;19;20085;-53
2023/12/07 10:42:33;;;;;;;0.30;0.13;;;;;;;34.78;nan;98618.53;7395146;19;20038;-53
2023/12/07 10:45:06;;;;;;;0.75;0.75;;;;;;;34.82;nan;98599.13;7398554;19;20342;-53
2023/12/07 10:47:37;;;;;;;5.15;1.35;;;;;;;34.50;nan;98606.03;7394644;19;20515;-53
2023/12/07 10:50:10;;;;;;;0.77;0.40;;;;;;;34.45;nan;98595.75;7394573;19;20030;-53
2023/12/07 10:52:45;;;;;;;5.10;1.10;;;;;;;34.71;nan;98590.81;7395024;19;20018;-53
2023/12/07 10:55:23;;;;;;;0.10;0.10;;;;;;;34.26;nan;98583.56;7393288;19;20007;-53
2023/12/07 10:57:52;;;;;;;1.98;0.68;;;;;;;34.05;nan;98575.66;7394829;19;20007;-53
2023/12/07 11:00:19;;;;;;;2.05;0.65;;;;;;;34.57;nan;98575.91;7395541;19;20467;-53
2023/12/07 11:02:46;;;;;;;0.47;0.30;;;;;;;35.32;nan;98565.19;7394399;19;20049;-53
2023/12/07 11:05:12;;;;;;;0.47;0.35;;;;;;;35.49;nan;98572.94;7396101;19;20010;-53
2023/12/07 11:07:50;;;;;;;1.65;1.20;;;;;;;35.82;nan;98562.22;7393010;19;20014;-53
2023/12/07 11:10:34;;;;;;;0.10;0.10;;;;;;;35.85;nan;98555.75;7394380;19;20377;-53
2023/12/07 11:13:17;;;;;;;0.43;0.43;;;;;;;36.10;nan;98540.50;7394646;19;20015;-53
2023/12/07 11:15:44;;;;;;;0.10;0.10;;;;;;;36.37;nan;98539.69;7397475;19;20018;-53
2023/12/07 11:18:13;;;;;;;0.10;0.10;;;;;;;36.73;nan;98539.84;7397294;19;20081;-53
2023/12/07 11:20:40;;;;;;;0.85;0.63;;;;;;;36.68;nan;98544.06;7394983;19;20344;-53
2023/12/07 11:23:10;;;;;;;0.20;0.20;;;;;;;36.56;nan;98543.78;7394927;19;20022;-54
2023/12/07 11:25:37;;;;;;;3.35;1.40;;;;;;;36.68;nan;98544.06;7392416;19;20071;-53
2023/12/07 11:28:05;;;;;;;0.75;0.30;;;;;;;36.73;nan;98536.94;7390581;19;20031;-54
2023/12/07 11:30:34;;;;;;;1.10;0.35;;;;;;;36.59;nan;98536.59;7395930;19;20018;-54
2023/12/07 11:33:04;;;;;;;0.20;0.20;;;;;;;36.27;nan;98532.94;7392696;19;20010;-53
2023/12/07 11:35:30;;;;;;;0.20;0.20;;;;;;;35.85;nan;98543.44;7393767;19;20038;-53
2023/12/07 11:38:01;;;;;;;0.10;0.10;;;;;;;35.22;nan;98518.56;7392839;19;20046;-54
2023/12/07 11:40:27;;;;;;;0.10;0.10;;;;;;;35.55;nan;98514.41;7393192;19;20014;-53
2023/12/07 11:42:53;;;;;;;0.25;0.25;;;;;;;35.81;nan;98512.19;7396977;19;20014;-54
2023/12/07 11:45:39;;;;;;;0.20;0.20;;;;;;;36.11;nan;98500.63;7395210;19;20014;-53
2023/12/07 11:48:07;;;;;;;0.20;0.20;;;;;;;35.99;nan;98491.66;7391237;19;20006;-53
2023/12/07 11:50:33;;;;;;;0.43;0.32;;;;;;;35.60;nan;98493.56;7390503;19;20019;-53
2023/12/07 11:52:59;;;;;;;0.10;0.10;;;;;;;34.85;nan;98495.75;7391482;19;20014;-53